createdAt,value
2022-11-08T00:02:23.896Z,23.05
2022-11-08T00:04:51.409Z,19.83
2022-11-08T00:07:37.423Z,14.60
2022-11-08T00:10:23.282Z,17.50
2022-11-08T00:13:09.470Z,17.15
2022-11-08T00:15:38.922Z,22.35
2022-11-08T00:18:06.437Z,20.20
2022-11-08T00:20:33.599Z,20.08
2022-11-08T00:23:01.288Z,17.63
2022-11-08T00:25:28.441Z,21.20
2022-11-08T00:27:55.739Z,20.77
2022-11-08T00:30:22.893Z,19.17
2022-11-08T00:32:52.394Z,20.80
2022-11-08T00:35:19.569Z,16.70
2022-11-08T00:37:46.838Z,16.90
2022-11-08T00:40:13.985Z,22.98
2022-11-08T00:42:41.207Z,20.58
2022-11-08T00:45:08.425Z,22.08
2022-11-08T00:47:35.570Z,24.50
2022-11-08T00:50:02.829Z,24.08
2022-11-08T00:52:29.972Z,29.00
2022-11-08T00:54:57.165Z,27.55
2022-11-08T00:57:40.860Z,12.98
2022-11-08T01:00:12.353Z,31.48
2022-11-08T01:02:39.881Z,22.13
2022-11-08T01:05:07.209Z,22.77
2022-11-08T01:07:34.384Z,20.42
2022-11-08T01:10:01.616Z,25.75
2022-11-08T01:12:28.775Z,24.10
2022-11-08T01:14:56.178Z,19.95
2022-11-08T01:17:23.408Z,22.58
2022-11-08T01:19:50.836Z,23.77
2022-11-08T01:22:17.997Z,18.70
2022-11-08T01:24:45.306Z,14.27
2022-11-08T01:27:12.466Z,26.25
2022-11-08T01:29:39.690Z,15.55
2022-11-08T01:32:06.912Z,21.55
2022-11-08T01:34:34.077Z,28.02
2022-11-08T01:37:01.245Z,16.25
2022-11-08T01:39:32.926Z,13.45
2022-11-08T01:42:00.120Z,21.50
2022-11-08T01:44:27.421Z,22.25
2022-11-08T01:46:54.663Z,19.23
2022-11-08T01:49:21.860Z,17.63
2022-11-08T01:51:49.080Z,20.08
2022-11-08T01:54:16.314Z,17.63
2022-11-08T01:56:43.498Z,17.00
2022-11-08T01:59:10.638Z,13.88
2022-11-08T02:01:37.986Z,20.80
2022-11-08T02:04:05.202Z,28.08
2022-11-08T02:06:32.932Z,18.23
2022-11-08T02:09:00.115Z,22.65
2022-11-08T02:11:27.326Z,13.60
2022-11-08T02:13:54.489Z,14.25
2022-11-08T02:16:21.726Z,20.48
2022-11-08T02:18:48.945Z,16.08
2022-11-08T02:21:16.135Z,13.10
2022-11-08T02:23:43.428Z,16.95
2022-11-08T02:26:10.649Z,16.98
2022-11-08T02:28:37.896Z,15.63
2022-11-08T02:31:05.134Z,19.08
2022-11-08T02:33:33.183Z,22.80
2022-11-08T02:36:00.365Z,16.67
2022-11-08T02:38:27.518Z,9.90
2022-11-08T02:40:54.714Z,22.00
2022-11-08T02:43:21.843Z,11.88
2022-11-08T02:45:49.046Z,14.73
2022-11-08T02:48:16.516Z,16.63
2022-11-08T02:50:43.917Z,13.38
2022-11-08T02:53:11.104Z,16.20
2022-11-08T02:55:38.270Z,13.75
2022-11-08T02:58:05.404Z,10.02
2022-11-08T03:00:32.770Z,21.45
2022-11-08T03:02:59.909Z,11.13
2022-11-08T03:05:27.104Z,11.70
2022-11-08T03:07:54.245Z,18.88
2022-11-08T03:10:21.457Z,10.75
2022-11-08T03:12:48.695Z,11.80
2022-11-08T03:15:15.913Z,14.68
2022-11-08T03:17:43.056Z,12.82
2022-11-08T03:20:10.264Z,14.80
2022-11-08T03:22:37.461Z,12.60
2022-11-08T03:25:04.666Z,15.55
2022-11-08T03:27:31.828Z,24.75
2022-11-08T03:29:59.047Z,22.50
2022-11-08T03:32:26.198Z,13.50
2022-11-08T03:34:53.435Z,14.98
2022-11-08T03:37:23.071Z,20.88
2022-11-08T03:39:50.353Z,16.00
2022-11-08T03:42:17.507Z,10.18
2022-11-08T03:44:44.747Z,13.93
2022-11-08T03:47:11.873Z,19.33
2022-11-08T03:49:39.055Z,14.77
2022-11-08T03:52:06.202Z,16.65
2022-11-08T03:54:33.420Z,12.88
2022-11-08T03:57:00.584Z,15.00
2022-11-08T03:59:27.832Z,18.73
2022-11-08T04:01:55.051Z,11.73
2022-11-08T04:04:22.338Z,16.08
2022-11-08T04:06:49.503Z,16.45
2022-11-08T04:09:20.553Z,13.70
2022-11-08T04:12:07.781Z,25.42
2022-11-08T04:14:53.852Z,13.40
2022-11-08T04:17:41.055Z,14.38
2022-11-08T04:20:26.984Z,18.58
2022-11-08T04:22:54.187Z,10.10
2022-11-08T04:25:21.346Z,18.00
2022-11-08T04:27:49.380Z,7.90
2022-11-08T04:30:16.630Z,15.70
2022-11-08T04:32:43.855Z,15.80
2022-11-08T04:35:11.011Z,17.00
2022-11-08T04:37:38.222Z,14.57
2022-11-08T04:40:05.397Z,14.50
2022-11-08T04:42:32.664Z,13.48
2022-11-08T04:44:59.832Z,9.45
2022-11-08T04:47:27.028Z,16.17
2022-11-08T04:49:54.448Z,15.60
2022-11-08T04:52:21.665Z,19.52
2022-11-08T04:54:48.853Z,13.90
2022-11-08T04:57:16.385Z,7.93
2022-11-08T04:59:43.631Z,13.88
2022-11-08T05:02:10.957Z,23.00
2022-11-08T05:04:38.184Z,28.70
2022-11-08T05:07:05.407Z,16.08
2022-11-08T05:09:32.552Z,12.95
2022-11-08T05:11:59.784Z,15.52
2022-11-08T05:14:26.960Z,16.15
2022-11-08T05:16:54.223Z,9.93
2022-11-08T05:19:41.623Z,20.25
2022-11-08T05:22:27.495Z,10.20
2022-11-08T05:24:54.748Z,12.32
2022-11-08T05:27:21.934Z,13.77
2022-11-08T05:29:49.187Z,13.02
2022-11-08T05:32:16.360Z,10.68
2022-11-08T05:34:43.546Z,11.55
2022-11-08T05:37:10.699Z,7.15
2022-11-08T05:39:37.967Z,14.07
2022-11-08T05:42:05.159Z,13.85
2022-11-08T05:44:32.339Z,8.27
2022-11-08T05:46:59.529Z,14.98
2022-11-08T05:49:26.822Z,11.45
2022-11-08T05:51:53.988Z,15.23
2022-11-08T05:54:21.220Z,8.60
2022-11-08T05:56:48.377Z,13.73
2022-11-08T05:59:15.589Z,15.45
2022-11-08T06:01:42.951Z,14.27
2022-11-08T06:04:10.293Z,17.48
2022-11-08T06:06:37.457Z,13.02
2022-11-08T06:09:04.776Z,19.35
2022-11-08T06:11:31.974Z,13.27
2022-11-08T06:13:59.234Z,6.47
2022-11-08T06:16:26.496Z,12.10
2022-11-08T06:18:53.923Z,21.80
2022-11-08T06:21:21.236Z,14.95
2022-11-08T06:23:48.447Z,11.13
2022-11-08T06:26:15.668Z,12.05
2022-11-08T06:28:42.997Z,9.38
2022-11-08T06:31:10.546Z,15.10
2022-11-08T06:33:37.764Z,7.43
2022-11-08T06:36:05.091Z,20.15
2022-11-08T06:38:32.366Z,11.52
2022-11-08T06:40:59.735Z,21.27
2022-11-08T06:43:27.252Z,15.38
2022-11-08T06:45:55.003Z,10.98
2022-11-08T06:48:22.215Z,23.63
2022-11-08T06:50:49.433Z,19.85
2022-11-08T06:53:17.069Z,15.02
2022-11-08T06:55:44.449Z,19.52
2022-11-08T06:58:11.788Z,19.13
2022-11-08T07:00:38.944Z,18.08
2022-11-08T07:03:06.268Z,18.45
2022-11-08T07:05:33.742Z,14.45
2022-11-08T07:08:01.128Z,15.90
2022-11-08T07:10:28.324Z,11.88
2022-11-08T07:12:55.523Z,27.27
2022-11-08T07:15:23.011Z,27.92
2022-11-08T07:17:50.256Z,26.38
2022-11-08T07:20:17.472Z,24.42
2022-11-08T07:22:44.736Z,16.48
2022-11-08T07:25:11.906Z,21.08
2022-11-08T07:27:39.092Z,19.08
2022-11-08T07:30:06.343Z,22.33
2022-11-08T07:32:33.535Z,19.33
2022-11-08T07:35:00.877Z,20.90
2022-11-08T07:37:28.111Z,18.27
2022-11-08T07:39:55.341Z,23.30
2022-11-08T07:42:22.495Z,23.63
2022-11-08T07:45:02.383Z,28.05
2022-11-08T07:47:29.684Z,33.47
2022-11-08T07:49:56.834Z,25.80
2022-11-08T07:52:24.123Z,16.80
2022-11-08T07:54:51.290Z,28.77
2022-11-08T07:57:18.528Z,46.45
2022-11-08T07:59:45.782Z,25.42
2022-11-08T08:02:13.039Z,50.50
2022-11-08T08:04:40.294Z,31.30
2022-11-08T08:07:07.545Z,23.70
2022-11-08T08:09:34.951Z,33.60
2022-11-08T08:12:02.239Z,32.05
2022-11-08T08:14:29.440Z,22.25
2022-11-08T08:16:57.459Z,36.45
2022-11-08T08:19:24.657Z,24.58
2022-11-08T08:21:51.986Z,19.20
2022-11-08T08:24:19.194Z,22.83
2022-11-08T08:26:46.426Z,27.52
2022-11-08T08:29:13.626Z,36.15
2022-11-08T08:31:40.886Z,39.30
2022-11-08T08:34:08.149Z,42.28
2022-11-08T08:36:35.316Z,24.10
2022-11-08T08:39:02.664Z,25.63
2022-11-08T08:41:29.974Z,34.05
2022-11-08T08:43:57.171Z,32.45
2022-11-08T08:46:24.420Z,27.02
2022-11-08T08:48:51.678Z,40.05
2022-11-08T08:51:18.893Z,28.20
2022-11-08T08:53:46.036Z,32.10
2022-11-08T08:56:13.468Z,33.00
2022-11-08T08:58:40.969Z,29.45
2022-11-08T09:04:00.260Z,35.08
2022-11-08T09:06:27.440Z,30.85
2022-11-08T09:08:54.729Z,19.83
2022-11-08T09:11:21.904Z,18.15
2022-11-08T09:13:49.102Z,15.43
2022-11-08T09:16:16.257Z,15.02
2022-11-08T09:18:43.589Z,30.05
2022-11-08T09:21:10.829Z,19.08
2022-11-08T09:23:38.172Z,18.67
2022-11-08T09:26:05.324Z,24.83
2022-11-08T09:28:32.570Z,22.50
2022-11-08T09:30:59.759Z,53.58
2022-11-08T09:35:54.113Z,30.73
2022-11-08T09:38:21.431Z,23.92
2022-11-08T09:40:49.067Z,37.35
2022-11-08T09:43:16.701Z,17.67
2022-11-08T09:45:44.561Z,25.60
2022-11-08T09:48:11.785Z,26.33
2022-11-08T09:50:38.942Z,23.27
2022-11-08T09:53:06.162Z,30.63
2022-11-08T09:55:33.369Z,23.17
2022-11-08T09:58:00.633Z,20.02
2022-11-08T10:00:28.181Z,22.75
2022-11-08T10:02:55.643Z,26.00
2022-11-08T10:05:22.832Z,26.80
2022-11-08T10:07:50.336Z,24.58
2022-11-08T10:10:17.581Z,21.55
2022-11-08T10:12:44.850Z,20.52
2022-11-08T10:15:12.042Z,18.17
2022-11-08T10:17:39.291Z,14.55
2022-11-08T10:20:07.318Z,25.48
2022-11-08T10:22:34.671Z,24.50
2022-11-08T10:25:01.937Z,27.65
2022-11-08T10:27:30.291Z,9.13
2022-11-08T10:29:57.491Z,20.00
2022-11-08T10:32:25.382Z,16.58
2022-11-08T10:34:52.691Z,15.57
2022-11-08T10:37:19.918Z,14.52
2022-11-08T10:39:47.088Z,13.57
2022-11-08T10:42:14.436Z,16.80
2022-11-08T10:44:41.588Z,17.20
2022-11-08T10:47:08.866Z,9.35
2022-11-08T10:49:36.027Z,15.35
2022-11-08T10:52:06.235Z,20.63
2022-11-08T10:54:33.485Z,16.27
2022-11-08T10:57:00.718Z,20.35
2022-11-08T10:59:27.902Z,23.58
2022-11-08T11:01:55.116Z,22.88
2022-11-08T11:04:22.364Z,19.50
2022-11-08T11:06:49.596Z,18.90
2022-11-08T11:09:16.929Z,27.05
2022-11-08T11:11:45.377Z,32.03
2022-11-08T11:14:16.311Z,31.25
2022-11-08T11:16:48.953Z,17.60
2022-11-08T11:19:16.137Z,30.67
2022-11-08T11:21:43.360Z,24.33
2022-11-08T11:24:10.579Z,27.50
2022-11-08T11:26:39.073Z,15.30
2022-11-08T11:29:06.629Z,32.75
2022-11-08T11:31:33.850Z,33.17
2022-11-08T11:34:01.010Z,27.90
2022-11-08T11:36:28.221Z,23.38
2022-11-08T11:38:55.375Z,32.33
2022-11-08T11:41:22.711Z,26.08
2022-11-08T11:43:50.111Z,22.10
2022-11-08T11:46:17.371Z,29.00
2022-11-08T11:48:44.495Z,25.42
2022-11-08T11:51:11.828Z,24.48
2022-11-08T11:53:47.522Z,24.25
2022-11-08T11:56:16.009Z,29.98
2022-11-08T11:58:44.147Z,23.85
2022-11-08T12:01:14.470Z,21.75
2022-11-08T12:03:42.221Z,29.50
2022-11-08T12:06:10.113Z,28.23
2022-11-08T12:08:37.347Z,37.42
2022-11-08T12:11:04.588Z,37.90
2022-11-08T12:13:34.848Z,18.65
2022-11-08T12:16:02.098Z,22.95
2022-11-08T12:18:42.247Z,28.92
2022-11-08T12:21:10.778Z,31.05
2022-11-08T12:23:38.937Z,21.02
2022-11-08T12:26:06.296Z,20.63
2022-11-08T12:28:33.592Z,24.00
2022-11-08T12:31:02.064Z,19.52
2022-11-08T12:33:29.261Z,24.02
2022-11-08T12:35:58.835Z,22.60
2022-11-08T12:38:25.996Z,22.90
2022-11-08T12:40:53.191Z,22.25
2022-11-08T12:43:20.386Z,24.10
2022-11-08T12:45:47.630Z,19.17
2022-11-08T12:48:14.844Z,30.75
2022-11-08T12:50:42.223Z,25.73
2022-11-08T12:53:09.487Z,23.33
2022-11-08T12:55:36.714Z,36.95
2022-11-08T12:58:03.893Z,32.10
2022-11-08T13:00:31.101Z,39.33
2022-11-08T13:02:58.314Z,25.42
2022-11-08T13:05:25.515Z,31.75
2022-11-08T13:07:52.694Z,28.55
2022-11-08T13:10:19.942Z,26.00
2022-11-08T13:12:47.104Z,20.05
2022-11-08T13:15:14.392Z,24.48
2022-11-08T13:17:41.556Z,23.75
2022-11-08T13:20:09.004Z,57.22
2022-11-08T13:22:36.226Z,24.30
2022-11-08T13:25:03.387Z,26.90
2022-11-08T13:27:30.604Z,22.98
2022-11-08T13:29:58.048Z,30.55
2022-11-08T13:32:25.211Z,36.67
2022-11-08T13:34:52.470Z,29.55
2022-11-08T13:37:19.664Z,26.92
2022-11-08T13:39:46.834Z,33.78
2022-11-08T13:42:14.021Z,33.50
2022-11-08T13:44:41.262Z,33.28
2022-11-08T13:47:08.498Z,34.35
2022-11-08T13:49:35.670Z,20.23
2022-11-08T13:52:02.969Z,41.08
2022-11-08T13:54:31.874Z,33.08
2022-11-08T13:56:59.105Z,32.40
2022-11-08T13:59:27.172Z,54.85
2022-11-08T14:01:54.514Z,30.13
2022-11-08T14:04:21.728Z,15.98
2022-11-08T14:06:49.024Z,11.35
2022-11-08T14:09:16.919Z,20.65
2022-11-08T14:11:45.001Z,11.73
2022-11-08T14:14:12.853Z,20.10
2022-11-08T14:16:40.113Z,23.15
2022-11-08T14:19:07.438Z,19.52
2022-11-08T14:21:34.669Z,22.73
2022-11-08T14:24:02.068Z,16.85
2022-11-08T14:26:31.190Z,13.73
2022-11-08T14:28:58.456Z,10.30
2022-11-08T14:31:25.716Z,14.07
2022-11-08T14:33:53.632Z,16.95
2022-11-08T14:36:21.784Z,16.08
2022-11-08T14:38:49.072Z,17.77
2022-11-08T14:41:16.271Z,26.20
2022-11-08T14:43:43.520Z,24.73
2022-11-08T14:46:10.655Z,19.63
2022-11-08T14:48:37.861Z,24.48
2022-11-08T14:51:05.370Z,19.85
2022-11-08T14:53:32.739Z,12.95
2022-11-08T14:55:59.937Z,15.25
2022-11-08T14:58:27.210Z,16.08
2022-11-08T15:00:54.490Z,17.50
2022-11-08T15:03:21.901Z,9.05
2022-11-08T15:05:49.311Z,18.27
2022-11-08T15:08:16.858Z,29.50
2022-11-08T15:10:44.240Z,17.70
2022-11-08T15:13:11.494Z,18.55
2022-11-08T15:15:38.750Z,19.25
2022-11-08T15:18:05.968Z,12.88
2022-11-08T15:20:33.156Z,17.38
2022-11-08T15:23:00.741Z,16.92
2022-11-08T15:25:27.901Z,14.73
2022-11-08T15:27:55.568Z,13.90
2022-11-08T15:30:22.785Z,13.57
2022-11-08T15:32:50.214Z,15.02
2022-11-08T15:35:17.374Z,14.65
2022-11-08T15:37:46.740Z,16.85
2022-11-08T15:40:13.934Z,20.95
2022-11-08T15:42:44.449Z,16.70
2022-11-08T15:45:11.925Z,15.52
2022-11-08T15:47:39.126Z,19.23
2022-11-08T15:50:07.846Z,13.40
2022-11-08T15:52:36.107Z,17.35
2022-11-08T15:55:03.337Z,18.52
2022-11-08T15:57:30.517Z,15.43
2022-11-08T15:59:58.064Z,16.15
2022-11-08T16:02:25.400Z,14.90
2022-11-08T16:04:52.689Z,16.35
2022-11-08T16:07:20.081Z,35.40
2022-11-08T16:09:47.357Z,22.23
2022-11-08T16:12:14.632Z,17.63
2022-11-08T16:14:41.998Z,11.07
2022-11-08T16:17:09.232Z,21.63
2022-11-08T16:19:36.429Z,25.80
2022-11-08T16:22:07.344Z,17.42
2022-11-08T16:24:34.580Z,29.75
2022-11-08T16:27:01.831Z,18.75
2022-11-08T16:29:29.325Z,22.23
2022-11-08T16:31:56.482Z,20.65
2022-11-08T16:34:23.899Z,19.27
2022-11-08T16:36:51.123Z,27.38
2022-11-08T16:39:18.376Z,24.80
2022-11-08T16:41:45.625Z,28.23
2022-11-08T16:44:12.817Z,27.10
2022-11-08T16:46:40.102Z,26.52
2022-11-08T16:49:07.358Z,15.07
2022-11-08T16:51:34.635Z,36.15
2022-11-08T16:54:02.764Z,41.80
2022-11-08T16:56:29.988Z,40.30
2022-11-08T16:58:57.309Z,29.27
2022-11-08T17:01:24.655Z,36.05
2022-11-08T17:03:51.855Z,39.90
2022-11-08T17:06:19.140Z,52.58
2022-11-08T17:08:46.288Z,39.53
2022-11-08T17:11:13.509Z,38.97
2022-11-08T17:13:40.825Z,31.15
2022-11-08T17:16:08.063Z,47.50
2022-11-08T17:18:35.276Z,30.25
2022-11-08T17:21:23.276Z,35.80
2022-11-08T17:23:51.733Z,22.33
2022-11-08T17:26:19.034Z,32.30
2022-11-08T17:28:46.312Z,50.97
2022-11-08T17:31:13.825Z,38.75
2022-11-08T17:33:41.104Z,43.60
2022-11-08T17:36:08.391Z,32.22
2022-11-08T17:38:35.925Z,26.15
2022-11-08T17:41:03.237Z,34.70
2022-11-08T17:43:30.934Z,57.05
2022-11-08T17:45:58.544Z,37.30
2022-11-08T17:48:25.866Z,42.42
2022-11-08T17:50:53.311Z,36.58
2022-11-08T17:53:20.960Z,37.63
2022-11-08T17:55:48.511Z,33.00
2022-11-08T17:58:15.763Z,35.65
2022-11-08T18:00:42.954Z,35.05
2022-11-08T18:03:13.028Z,29.95
2022-11-08T18:05:40.192Z,50.65
2022-11-08T18:08:07.398Z,46.00
2022-11-08T18:10:35.728Z,39.78
2022-11-08T18:13:02.885Z,27.92
2022-11-08T18:15:30.134Z,39.00
2022-11-08T18:17:57.378Z,47.03
2022-11-08T18:20:24.605Z,45.90
2022-11-08T18:22:51.832Z,42.33
2022-11-08T18:25:19.160Z,36.13
2022-11-08T18:27:46.395Z,45.70
2022-11-08T18:30:13.721Z,50.83
2022-11-08T18:32:40.879Z,44.97
2022-11-08T18:35:08.137Z,44.17
2022-11-08T18:37:35.328Z,57.13
2022-11-08T18:40:02.611Z,38.03
2022-11-08T18:42:30.376Z,39.08
2022-11-08T18:44:57.642Z,53.67
2022-11-08T18:47:24.941Z,24.23
2022-11-08T18:49:55.530Z,43.90
2022-11-08T18:52:22.901Z,37.15
2022-11-08T18:54:53.080Z,40.63
2022-11-08T18:57:20.426Z,28.33
2022-11-08T18:59:48.146Z,47.13
2022-11-08T19:02:15.412Z,38.13
2022-11-08T19:04:42.594Z,40.00
2022-11-08T19:07:10.180Z,42.65
2022-11-08T19:09:38.121Z,35.92
2022-11-08T19:12:06.165Z,28.35
2022-11-08T19:14:35.343Z,37.53
2022-11-08T19:17:02.558Z,33.10
2022-11-08T19:19:29.783Z,18.50
2022-11-08T19:21:56.976Z,32.88
2022-11-08T19:24:24.448Z,31.90
2022-11-08T19:26:51.839Z,26.50
2022-11-08T19:29:19.006Z,19.45
2022-11-08T19:31:46.387Z,28.20
2022-11-08T19:34:13.648Z,22.48
2022-11-08T19:36:43.634Z,26.20
2022-11-08T19:39:11.912Z,24.33
2022-11-08T19:41:39.099Z,27.30
2022-11-08T19:44:06.736Z,28.77
2022-11-08T19:46:34.253Z,20.27
2022-11-08T19:49:01.896Z,31.15
2022-11-08T19:51:29.042Z,39.58
2022-11-08T19:53:56.291Z,30.92
2022-11-08T19:56:32.853Z,30.83
2022-11-08T19:59:00.574Z,29.00
2022-11-08T20:01:36.157Z,24.40
2022-11-08T20:04:03.455Z,38.17
2022-11-08T20:06:32.170Z,21.77
2022-11-08T20:08:59.461Z,38.00
2022-11-08T20:11:27.729Z,21.88
2022-11-08T20:13:55.133Z,36.53
2022-11-08T20:16:22.403Z,32.05
2022-11-08T20:18:49.685Z,40.00
2022-11-08T20:21:16.851Z,35.08
2022-11-08T20:23:44.062Z,37.55
2022-11-08T20:26:11.340Z,43.63
2022-11-08T20:28:41.815Z,37.58
2022-11-08T20:31:09.626Z,33.00
2022-11-08T20:33:36.860Z,38.60
2022-11-08T20:36:04.085Z,49.28
2022-11-08T20:38:31.539Z,31.30
2022-11-08T20:41:00.157Z,32.15
2022-11-08T20:43:27.446Z,32.03
2022-11-08T20:45:54.666Z,38.10
2022-11-08T20:48:22.058Z,34.15
2022-11-08T20:50:49.254Z,34.33
2022-11-08T20:53:16.657Z,45.50
2022-11-08T20:55:44.008Z,31.50
2022-11-08T20:58:11.305Z,36.30
2022-11-08T21:00:57.274Z,40.42
2022-11-08T21:03:25.531Z,42.22
2022-11-08T21:05:52.766Z,35.45
2022-11-08T21:11:07.329Z,34.95
2022-11-08T21:13:34.895Z,40.38
2022-11-08T21:16:26.756Z,30.50
2022-11-08T21:18:50.951Z,36.60
2022-11-08T21:21:18.124Z,44.40
2022-11-08T21:23:45.320Z,35.90
2022-11-08T21:26:12.628Z,17.45
2022-11-08T21:28:39.834Z,30.05
2022-11-08T21:31:07.016Z,31.52
2022-11-08T21:33:34.324Z,44.08
2022-11-08T21:36:01.491Z,26.38
2022-11-08T21:38:28.886Z,27.95
2022-11-08T21:40:56.545Z,45.65
2022-11-08T21:43:23.788Z,30.27
2022-11-08T21:45:51.382Z,33.67
2022-11-08T21:48:18.764Z,35.97
2022-11-08T21:50:46.158Z,32.08
2022-11-08T21:53:13.435Z,29.60
2022-11-08T21:55:40.672Z,31.55
2022-11-08T21:58:07.953Z,32.72
2022-11-08T22:00:35.173Z,37.72
2022-11-08T22:03:02.762Z,37.38
2022-11-08T22:05:32.180Z,39.35
2022-11-08T22:07:59.420Z,40.78
2022-11-08T22:10:26.640Z,26.73
2022-11-08T22:12:53.981Z,36.00
2022-11-08T22:15:21.216Z,28.33
2022-11-08T22:18:14.496Z,37.95
2022-11-08T22:20:35.708Z,20.38
2022-11-08T22:23:08.722Z,40.22
2022-11-08T22:25:38.625Z,30.42
2022-11-08T22:28:06.351Z,31.45
2022-11-08T22:30:33.557Z,28.70
2022-11-08T22:33:00.756Z,31.45
2022-11-08T22:35:27.930Z,33.00
2022-11-08T22:37:55.424Z,34.45
2022-11-08T22:40:22.646Z,33.85
2022-11-08T22:42:49.909Z,23.60
2022-11-08T22:45:17.145Z,40.05
2022-11-08T22:47:44.456Z,34.15
2022-11-08T22:50:11.673Z,38.50
2022-11-08T22:52:41.180Z,30.92
2022-11-08T22:55:08.393Z,30.92
2022-11-08T22:57:35.684Z,31.98
2022-11-08T23:00:03.015Z,28.38
2022-11-08T23:02:33.255Z,23.70
2022-11-08T23:05:00.674Z,36.83
2022-11-08T23:07:27.880Z,35.35
2022-11-08T23:09:55.103Z,34.63
2022-11-08T23:12:41.082Z,30.08
2022-11-08T23:15:27.229Z,40.38
2022-11-08T23:17:54.577Z,41.20
2022-11-08T23:20:40.759Z,28.65
2022-11-08T23:23:26.865Z,51.78
2022-11-08T23:25:54.185Z,38.67
2022-11-08T23:29:00.032Z,39.92
2022-11-08T23:31:36.536Z,39.10
2022-11-08T23:34:03.746Z,41.72
2022-11-08T23:36:30.875Z,29.05
2022-11-08T23:38:58.090Z,35.60
2022-11-08T23:41:44.342Z,40.85
2022-11-08T23:44:24.048Z,33.20
2022-11-08T23:46:51.509Z,39.13
2022-11-08T23:49:18.670Z,32.22
2022-11-08T23:51:45.997Z,33.05
2022-11-08T23:54:13.215Z,36.42
2022-11-08T23:56:40.426Z,25.63
2022-11-08T23:59:07.634Z,39.72
